sensor_id;sensor_type;location;lat;lon;timestamp;P1;durP1;ratioP1;P2;durP2;ratioP2
54307;SDS011;40208;39.778;2.710;2022-08-21T00:02:22;2.50;;;1.30;;
54307;SDS011;40208;39.778;2.710;2022-08-21T00:05:08;1.80;;;1.10;;
54307;SDS011;40208;39.778;2.710;2022-08-21T00:07:53;1.73;;;1.25;;
54307;SDS011;40208;39.778;2.710;2022-08-21T00:10:39;3.33;;;1.15;;
54307;SDS011;40208;39.778;2.710;2022-08-21T00:13:25;3.65;;;1.08;;
54307;SDS011;40208;39.778;2.710;2022-08-21T00:16:10;3.80;;;1.42;;
54307;SDS011;40208;39.778;2.710;2022-08-21T00:18:55;3.47;;;1.20;;
54307;SDS011;40208;39.778;2.710;2022-08-21T00:21:39;2.85;;;1.30;;
54307;SDS011;40208;39.778;2.710;2022-08-21T00:24:24;1.63;;;1.00;;
54307;SDS011;40208;39.778;2.710;2022-08-21T00:27:10;4.28;;;1.40;;
54307;SDS011;40208;39.778;2.710;2022-08-21T00:29:55;3.40;;;1.40;;
54307;SDS011;40208;39.778;2.710;2022-08-21T00:32:39;2.53;;;1.33;;
54307;SDS011;40208;39.778;2.710;2022-08-21T00:35:26;1.98;;;1.33;;
54307;SDS011;40208;39.778;2.710;2022-08-21T00:38:13;1.20;;;1.00;;
54307;SDS011;40208;39.778;2.710;2022-08-21T00:40:59;3.60;;;1.35;;
54307;SDS011;40208;39.778;2.710;2022-08-21T00:43:47;2.90;;;1.13;;
54307;SDS011;40208;39.778;2.710;2022-08-21T00:46:31;3.95;;;1.33;;
54307;SDS011;40208;39.778;2.710;2022-08-21T00:49:16;5.68;;;1.33;;
54307;SDS011;40208;39.778;2.710;2022-08-21T00:52:02;2.17;;;1.50;;
54307;SDS011;40208;39.778;2.710;2022-08-21T00:54:48;2.40;;;1.30;;
54307;SDS011;40208;39.778;2.710;2022-08-21T00:57:40;1.63;;;0.95;;
54307;SDS011;40208;39.778;2.710;2022-08-21T01:00:31;4.68;;;1.10;;
54307;SDS011;40208;39.778;2.710;2022-08-21T01:03:19;2.07;;;1.13;;
54307;SDS011;40208;39.778;2.710;2022-08-21T01:06:06;3.78;;;1.30;;
54307;SDS011;40208;39.778;2.710;2022-08-21T01:08:53;3.10;;;1.25;;
54307;SDS011;40208;39.778;2.710;2022-08-21T01:11:37;3.47;;;1.17;;
54307;SDS011;40208;39.778;2.710;2022-08-21T01:14:22;6.93;;;1.48;;
54307;SDS011;40208;39.778;2.710;2022-08-21T01:17:07;2.88;;;1.30;;
54307;SDS011;40208;39.778;2.710;2022-08-21T01:19:57;2.22;;;1.02;;
54307;SDS011;40208;39.778;2.710;2022-08-21T01:22:42;4.38;;;1.42;;
54307;SDS011;40208;39.778;2.710;2022-08-21T01:25:27;3.63;;;1.48;;
54307;SDS011;40208;39.778;2.710;2022-08-21T01:28:13;3.08;;;1.30;;
54307;SDS011;40208;39.778;2.710;2022-08-21T01:30:58;2.60;;;1.23;;
54307;SDS011;40208;39.778;2.710;2022-08-21T01:33:47;2.65;;;1.13;;
54307;SDS011;40208;39.778;2.710;2022-08-21T01:36:32;2.50;;;1.60;;
54307;SDS011;40208;39.778;2.710;2022-08-21T01:39:17;3.80;;;1.30;;
54307;SDS011;40208;39.778;2.710;2022-08-21T01:42:03;4.53;;;1.60;;
54307;SDS011;40208;39.778;2.710;2022-08-21T01:44:49;3.13;;;1.35;;
54307;SDS011;40208;39.778;2.710;2022-08-21T01:47:34;4.53;;;1.60;;
54307;SDS011;40208;39.778;2.710;2022-08-21T01:50:19;5.97;;;1.20;;
54307;SDS011;40208;39.778;2.710;2022-08-21T01:53:05;3.40;;;1.25;;
54307;SDS011;40208;39.778;2.710;2022-08-21T01:55:49;5.35;;;1.60;;
54307;SDS011;40208;39.778;2.710;2022-08-21T01:58:34;3.05;;;1.30;;
54307;SDS011;40208;39.778;2.710;2022-08-21T02:01:19;2.35;;;1.08;;
54307;SDS011;40208;39.778;2.710;2022-08-21T02:04:05;6.18;;;1.33;;
54307;SDS011;40208;39.778;2.710;2022-08-21T02:06:51;1.52;;;1.20;;
54307;SDS011;40208;39.778;2.710;2022-08-21T02:09:36;2.35;;;1.20;;
54307;SDS011;40208;39.778;2.710;2022-08-21T02:12:21;4.03;;;1.23;;
54307;SDS011;40208;39.778;2.710;2022-08-21T02:15:06;7.57;;;1.40;;
54307;SDS011;40208;39.778;2.710;2022-08-21T02:17:54;13.45;;;1.48;;
54307;SDS011;40208;39.778;2.710;2022-08-21T02:20:42;1.90;;;1.33;;
54307;SDS011;40208;39.778;2.710;2022-08-21T02:23:29;1.20;;;1.08;;
54307;SDS011;40208;39.778;2.710;2022-08-21T02:26:14;4.38;;;1.35;;
54307;SDS011;40208;39.778;2.710;2022-08-21T02:28:59;3.33;;;1.40;;
54307;SDS011;40208;39.778;2.710;2022-08-21T02:31:44;1.58;;;1.10;;
54307;SDS011;40208;39.778;2.710;2022-08-21T02:34:29;1.38;;;0.98;;
54307;SDS011;40208;39.778;2.710;2022-08-21T02:37:14;1.88;;;0.93;;
54307;SDS011;40208;39.778;2.710;2022-08-21T02:39:59;2.15;;;1.17;;
54307;SDS011;40208;39.778;2.710;2022-08-21T02:42:45;2.17;;;1.10;;
54307;SDS011;40208;39.778;2.710;2022-08-21T02:45:30;2.88;;;1.17;;
54307;SDS011;40208;39.778;2.710;2022-08-21T02:48:18;1.83;;;0.95;;
54307;SDS011;40208;39.778;2.710;2022-08-21T02:51:09;2.50;;;1.38;;
54307;SDS011;40208;39.778;2.710;2022-08-21T02:53:59;1.17;;;1.05;;
54307;SDS011;40208;39.778;2.710;2022-08-21T02:56:44;2.08;;;1.30;;
54307;SDS011;40208;39.778;2.710;2022-08-21T02:59:28;1.38;;;1.02;;
54307;SDS011;40208;39.778;2.710;2022-08-21T03:02:13;4.32;;;1.30;;
54307;SDS011;40208;39.778;2.710;2022-08-21T03:04:59;1.48;;;1.23;;
54307;SDS011;40208;39.778;2.710;2022-08-21T03:07:44;2.67;;;1.13;;
54307;SDS011;40208;39.778;2.710;2022-08-21T03:10:30;1.20;;;0.80;;
54307;SDS011;40208;39.778;2.710;2022-08-21T03:13:15;3.33;;;1.10;;
54307;SDS011;40208;39.778;2.710;2022-08-21T03:16:01;5.80;;;1.00;;
54307;SDS011;40208;39.778;2.710;2022-08-21T03:18:46;3.45;;;0.93;;
54307;SDS011;40208;39.778;2.710;2022-08-21T03:21:31;1.45;;;0.93;;
54307;SDS011;40208;39.778;2.710;2022-08-21T03:24:16;2.88;;;1.30;;
54307;SDS011;40208;39.778;2.710;2022-08-21T03:27:01;6.75;;;1.50;;
54307;SDS011;40208;39.778;2.710;2022-08-21T03:29:46;1.73;;;1.20;;
54307;SDS011;40208;39.778;2.710;2022-08-21T03:32:30;2.85;;;1.10;;
54307;SDS011;40208;39.778;2.710;2022-08-21T03:35:16;2.03;;;0.73;;
54307;SDS011;40208;39.778;2.710;2022-08-21T03:38:02;1.60;;;0.80;;
54307;SDS011;40208;39.778;2.710;2022-08-21T03:40:47;0.93;;;0.80;;
54307;SDS011;40208;39.778;2.710;2022-08-21T03:43:32;2.38;;;0.95;;
54307;SDS011;40208;39.778;2.710;2022-08-21T03:46:17;1.77;;;1.00;;
54307;SDS011;40208;39.778;2.710;2022-08-21T03:49:02;1.92;;;1.10;;
54307;SDS011;40208;39.778;2.710;2022-08-21T03:51:47;6.35;;;1.00;;
54307;SDS011;40208;39.778;2.710;2022-08-21T03:54:31;1.05;;;0.90;;
54307;SDS011;40208;39.778;2.710;2022-08-21T03:57:17;3.13;;;0.98;;
54307;SDS011;40208;39.778;2.710;2022-08-21T04:00:03;2.83;;;1.20;;
54307;SDS011;40208;39.778;2.710;2022-08-21T04:02:48;1.33;;;0.98;;
54307;SDS011;40208;39.778;2.710;2022-08-21T04:05:33;2.13;;;1.17;;
54307;SDS011;40208;39.778;2.710;2022-08-21T04:08:18;2.45;;;1.48;;
54307;SDS011;40208;39.778;2.710;2022-08-21T04:11:03;3.45;;;1.48;;
54307;SDS011;40208;39.778;2.710;2022-08-21T04:13:49;1.92;;;1.20;;
54307;SDS011;40208;39.778;2.710;2022-08-21T04:16:34;7.85;;;1.13;;
54307;SDS011;40208;39.778;2.710;2022-08-21T04:19:19;1.00;;;0.90;;
54307;SDS011;40208;39.778;2.710;2022-08-21T04:22:04;1.90;;;0.98;;
54307;SDS011;40208;39.778;2.710;2022-08-21T04:24:48;3.53;;;0.80;;
54307;SDS011;40208;39.778;2.710;2022-08-21T04:27:34;2.05;;;0.90;;
54307;SDS011;40208;39.778;2.710;2022-08-21T04:30:21;1.27;;;0.88;;
54307;SDS011;40208;39.778;2.710;2022-08-21T04:33:06;5.22;;;0.88;;
54307;SDS011;40208;39.778;2.710;2022-08-21T04:35:51;5.40;;;1.00;;
54307;SDS011;40208;39.778;2.710;2022-08-21T04:38:36;1.70;;;0.80;;
54307;SDS011;40208;39.778;2.710;2022-08-21T04:41:21;2.65;;;0.70;;
54307;SDS011;40208;39.778;2.710;2022-08-21T04:44:06;0.98;;;0.93;;
54307;SDS011;40208;39.778;2.710;2022-08-21T04:46:51;1.98;;;1.08;;
54307;SDS011;40208;39.778;2.710;2022-08-21T04:49:36;2.80;;;1.02;;
54307;SDS011;40208;39.778;2.710;2022-08-21T04:52:21;4.03;;;1.00;;
54307;SDS011;40208;39.778;2.710;2022-08-21T04:55:07;4.30;;;1.30;;
54307;SDS011;40208;39.778;2.710;2022-08-21T04:57:53;5.57;;;1.20;;
54307;SDS011;40208;39.778;2.710;2022-08-21T05:00:39;4.43;;;1.20;;
54307;SDS011;40208;39.778;2.710;2022-08-21T05:03:24;1.17;;;0.95;;
54307;SDS011;40208;39.778;2.710;2022-08-21T05:06:10;2.45;;;1.30;;
54307;SDS011;40208;39.778;2.710;2022-08-21T05:08:57;6.80;;;2.00;;
54307;SDS011;40208;39.778;2.710;2022-08-21T05:11:42;3.40;;;1.60;;
54307;SDS011;40208;39.778;2.710;2022-08-21T05:14:28;3.25;;;1.50;;
54307;SDS011;40208;39.778;2.710;2022-08-21T05:17:13;2.50;;;1.30;;
54307;SDS011;40208;39.778;2.710;2022-08-21T05:19:58;3.80;;;1.50;;
54307;SDS011;40208;39.778;2.710;2022-08-21T05:22:43;6.07;;;1.40;;
54307;SDS011;40208;39.778;2.710;2022-08-21T05:25:28;3.50;;;1.02;;
54307;SDS011;40208;39.778;2.710;2022-08-21T05:28:13;2.90;;;1.10;;
54307;SDS011;40208;39.778;2.710;2022-08-21T05:30:58;1.67;;;1.00;;
54307;SDS011;40208;39.778;2.710;2022-08-21T05:33:42;1.67;;;0.98;;
54307;SDS011;40208;39.778;2.710;2022-08-21T05:36:27;6.93;;;1.38;;
54307;SDS011;40208;39.778;2.710;2022-08-21T05:39:12;2.90;;;1.00;;
54307;SDS011;40208;39.778;2.710;2022-08-21T05:41:57;4.18;;;1.27;;
54307;SDS011;40208;39.778;2.710;2022-08-21T05:44:42;1.33;;;1.20;;
54307;SDS011;40208;39.778;2.710;2022-08-21T05:47:27;2.65;;;1.13;;
54307;SDS011;40208;39.778;2.710;2022-08-21T05:50:12;1.48;;;1.17;;
54307;SDS011;40208;39.778;2.710;2022-08-21T05:52:57;1.73;;;1.10;;
54307;SDS011;40208;39.778;2.710;2022-08-21T05:55:42;1.20;;;1.10;;
54307;SDS011;40208;39.778;2.710;2022-08-21T05:58:27;2.58;;;1.27;;
54307;SDS011;40208;39.778;2.710;2022-08-21T06:01:12;2.83;;;0.80;;
54307;SDS011;40208;39.778;2.710;2022-08-21T06:03:57;3.33;;;1.30;;
54307;SDS011;40208;39.778;2.710;2022-08-21T06:06:42;7.45;;;2.38;;
54307;SDS011;40208;39.778;2.710;2022-08-21T06:09:27;2.72;;;1.48;;
54307;SDS011;40208;39.778;2.710;2022-08-21T06:12:13;2.45;;;1.45;;
54307;SDS011;40208;39.778;2.710;2022-08-21T06:14:58;5.47;;;1.40;;
54307;SDS011;40208;39.778;2.710;2022-08-21T06:17:42;10.40;;;1.77;;
54307;SDS011;40208;39.778;2.710;2022-08-21T06:20:27;5.47;;;1.50;;
54307;SDS011;40208;39.778;2.710;2022-08-21T06:23:12;4.60;;;1.70;;
54307;SDS011;40208;39.778;2.710;2022-08-21T06:25:57;6.03;;;1.48;;
54307;SDS011;40208;39.778;2.710;2022-08-21T06:28:42;4.25;;;1.27;;
54307;SDS011;40208;39.778;2.710;2022-08-21T06:31:27;4.93;;;1.48;;
54307;SDS011;40208;39.778;2.710;2022-08-21T06:34:12;2.83;;;1.48;;
54307;SDS011;40208;39.778;2.710;2022-08-21T06:36:58;4.57;;;1.33;;
54307;SDS011;40208;39.778;2.710;2022-08-21T06:39:42;3.85;;;1.30;;
54307;SDS011;40208;39.778;2.710;2022-08-21T06:42:27;3.05;;;0.90;;
54307;SDS011;40208;39.778;2.710;2022-08-21T06:45:12;1.83;;;0.98;;
54307;SDS011;40208;39.778;2.710;2022-08-21T06:47:57;5.30;;;0.90;;
54307;SDS011;40208;39.778;2.710;2022-08-21T06:50:42;14.15;;;10.23;;
54307;SDS011;40208;39.778;2.710;2022-08-21T06:53:27;31.95;;;23.60;;
54307;SDS011;40208;39.778;2.710;2022-08-21T06:56:11;26.67;;;20.13;;
54307;SDS011;40208;39.778;2.710;2022-08-21T06:58:57;18.40;;;9.57;;
54307;SDS011;40208;39.778;2.710;2022-08-21T07:01:41;7.60;;;4.38;;
54307;SDS011;40208;39.778;2.710;2022-08-21T07:04:26;8.05;;;6.18;;
54307;SDS011;40208;39.778;2.710;2022-08-21T07:07:11;10.18;;;5.82;;
54307;SDS011;40208;39.778;2.710;2022-08-21T07:09:56;9.75;;;6.00;;
54307;SDS011;40208;39.778;2.710;2022-08-21T07:12:40;8.68;;;5.35;;
54307;SDS011;40208;39.778;2.710;2022-08-21T07:15:26;9.25;;;4.72;;
54307;SDS011;40208;39.778;2.710;2022-08-21T07:18:14;8.10;;;5.28;;
54307;SDS011;40208;39.778;2.710;2022-08-21T07:21:00;8.95;;;5.05;;
54307;SDS011;40208;39.778;2.710;2022-08-21T07:23:49;5.93;;;4.22;;
54307;SDS011;40208;39.778;2.710;2022-08-21T07:26:34;11.00;;;3.38;;
54307;SDS011;40208;39.778;2.710;2022-08-21T07:29:19;11.85;;;4.10;;
54307;SDS011;40208;39.778;2.710;2022-08-21T07:32:04;6.20;;;3.60;;
54307;SDS011;40208;39.778;2.710;2022-08-21T07:34:50;7.50;;;2.15;;
54307;SDS011;40208;39.778;2.710;2022-08-21T07:37:34;3.95;;;1.58;;
54307;SDS011;40208;39.778;2.710;2022-08-21T07:40:19;4.88;;;1.55;;
54307;SDS011;40208;39.778;2.710;2022-08-21T07:43:04;3.22;;;1.60;;
54307;SDS011;40208;39.778;2.710;2022-08-21T07:45:50;4.75;;;1.52;;
54307;SDS011;40208;39.778;2.710;2022-08-21T07:48:34;3.45;;;1.70;;
54307;SDS011;40208;39.778;2.710;2022-08-21T07:51:20;6.25;;;1.67;;
54307;SDS011;40208;39.778;2.710;2022-08-21T07:54:09;3.80;;;1.73;;
54307;SDS011;40208;39.778;2.710;2022-08-21T07:56:54;2.90;;;1.95;;
54307;SDS011;40208;39.778;2.710;2022-08-21T07:59:39;3.33;;;1.92;;
54307;SDS011;40208;39.778;2.710;2022-08-21T08:02:25;3.65;;;1.70;;
54307;SDS011;40208;39.778;2.710;2022-08-21T08:05:11;3.35;;;1.40;;
54307;SDS011;40208;39.778;2.710;2022-08-21T08:07:56;3.78;;;1.88;;
54307;SDS011;40208;39.778;2.710;2022-08-21T08:10:41;3.65;;;1.80;;
54307;SDS011;40208;39.778;2.710;2022-08-21T08:13:28;5.65;;;1.40;;
54307;SDS011;40208;39.778;2.710;2022-08-21T08:16:13;6.93;;;1.90;;
54307;SDS011;40208;39.778;2.710;2022-08-21T08:18:59;2.10;;;1.20;;
54307;SDS011;40208;39.778;2.710;2022-08-21T08:21:44;4.70;;;1.10;;
54307;SDS011;40208;39.778;2.710;2022-08-21T08:24:28;2.35;;;0.90;;
54307;SDS011;40208;39.778;2.710;2022-08-21T08:27:15;3.22;;;1.10;;
54307;SDS011;40208;39.778;2.710;2022-08-21T08:30:00;1.27;;;1.05;;
54307;SDS011;40208;39.778;2.710;2022-08-21T08:32:46;1.77;;;0.82;;
54307;SDS011;40208;39.778;2.710;2022-08-21T08:35:31;1.48;;;0.70;;
54307;SDS011;40208;39.778;2.710;2022-08-21T08:38:17;2.97;;;1.17;;
54307;SDS011;40208;39.778;2.710;2022-08-21T08:44:03;1.50;;;0.98;;
54307;SDS011;40208;39.778;2.710;2022-08-21T08:46:50;4.07;;;1.38;;
54307;SDS011;40208;39.778;2.710;2022-08-21T08:49:40;3.08;;;1.30;;
54307;SDS011;40208;39.778;2.710;2022-08-21T08:52:35;5.47;;;1.67;;
54307;SDS011;40208;39.778;2.710;2022-08-21T08:55:33;2.78;;;1.23;;
54307;SDS011;40208;39.778;2.710;2022-08-21T08:58:25;6.82;;;2.38;;
54307;SDS011;40208;39.778;2.710;2022-08-21T09:01:17;5.97;;;1.95;;
54307;SDS011;40208;39.778;2.710;2022-08-21T09:04:03;6.70;;;2.30;;
54307;SDS011;40208;39.778;2.710;2022-08-21T09:06:54;6.22;;;2.25;;
54307;SDS011;40208;39.778;2.710;2022-08-21T09:10:06;8.60;;;3.58;;
54307;SDS011;40208;39.778;2.710;2022-08-21T09:25:31;3.70;;;1.30;;
54307;SDS011;40208;39.778;2.710;2022-08-21T09:28:20;8.20;;;1.15;;
54307;SDS011;40208;39.778;2.710;2022-08-21T09:31:06;6.97;;;1.15;;
54307;SDS011;40208;39.778;2.710;2022-08-21T09:33:57;2.50;;;0.82;;
54307;SDS011;40208;39.778;2.710;2022-08-21T09:36:46;2.28;;;1.00;;
54307;SDS011;40208;39.778;2.710;2022-08-21T09:39:37;3.50;;;0.70;;
54307;SDS011;40208;39.778;2.710;2022-08-21T09:42:25;1.48;;;0.70;;
54307;SDS011;40208;39.778;2.710;2022-08-21T09:45:15;1.65;;;0.75;;
54307;SDS011;40208;39.778;2.710;2022-08-21T09:48:17;1.38;;;0.70;;
54307;SDS011;40208;39.778;2.710;2022-08-21T09:51:14;3.80;;;0.70;;
54307;SDS011;40208;39.778;2.710;2022-08-21T09:56:56;1.70;;;0.80;;
54307;SDS011;40208;39.778;2.710;2022-08-21T10:00:31;1.67;;;0.95;;
54307;SDS011;40208;39.778;2.710;2022-08-21T10:03:19;2.00;;;0.70;;
54307;SDS011;40208;39.778;2.710;2022-08-21T10:06:07;2.97;;;0.70;;
54307;SDS011;40208;39.778;2.710;2022-08-21T10:11:57;2.05;;;0.80;;
54307;SDS011;40208;39.778;2.710;2022-08-21T10:15:06;5.63;;;0.75;;
54307;SDS011;40208;39.778;2.710;2022-08-21T10:18:07;1.23;;;0.60;;
54307;SDS011;40208;39.778;2.710;2022-08-21T10:30:13;0.65;;;0.57;;
54307;SDS011;40208;39.778;2.710;2022-08-21T11:00:41;0.65;;;0.40;;
54307;SDS011;40208;39.778;2.710;2022-08-21T11:03:33;0.68;;;0.47;;
54307;SDS011;40208;39.778;2.710;2022-08-21T11:06:23;0.50;;;0.50;;
54307;SDS011;40208;39.778;2.710;2022-08-21T11:09:17;1.45;;;0.55;;
54307;SDS011;40208;39.778;2.710;2022-08-21T11:12:17;1.25;;;0.60;;
54307;SDS011;40208;39.778;2.710;2022-08-21T11:18:26;1.13;;;0.43;;
54307;SDS011;40208;39.778;2.710;2022-08-21T11:27:46;0.50;;;0.50;;
54307;SDS011;40208;39.778;2.710;2022-08-21T11:30:43;3.92;;;1.00;;
54307;SDS011;40208;39.778;2.710;2022-08-21T11:36:38;2.35;;;0.85;;
54307;SDS011;40208;39.778;2.710;2022-08-21T11:39:40;0.57;;;0.57;;
54307;SDS011;40208;39.778;2.710;2022-08-21T11:45:43;0.85;;;0.50;;
54307;SDS011;40208;39.778;2.710;2022-08-21T11:51:26;1.30;;;0.77;;
54307;SDS011;40208;39.778;2.710;2022-08-21T11:54:33;1.00;;;0.70;;
54307;SDS011;40208;39.778;2.710;2022-08-21T12:00:42;1.45;;;0.60;;
54307;SDS011;40208;39.778;2.710;2022-08-21T12:03:32;1.23;;;0.80;;
54307;SDS011;40208;39.778;2.710;2022-08-21T12:09:34;2.58;;;0.80;;
54307;SDS011;40208;39.778;2.710;2022-08-21T12:26:59;1.73;;;0.90;;
54307;SDS011;40208;39.778;2.710;2022-08-21T12:30:03;2.67;;;0.90;;
54307;SDS011;40208;39.778;2.710;2022-08-21T12:33:02;1.13;;;0.60;;
54307;SDS011;40208;39.778;2.710;2022-08-21T12:35:50;1.67;;;0.73;;
54307;SDS011;40208;39.778;2.710;2022-08-21T12:38:46;1.85;;;0.80;;
54307;SDS011;40208;39.778;2.710;2022-08-21T12:41:51;3.10;;;0.90;;
54307;SDS011;40208;39.778;2.710;2022-08-21T12:44:52;1.17;;;0.93;;
54307;SDS011;40208;39.778;2.710;2022-08-21T12:47:44;1.48;;;0.90;;
54307;SDS011;40208;39.778;2.710;2022-08-21T12:53:25;2.45;;;0.90;;
54307;SDS011;40208;39.778;2.710;2022-08-21T12:56:12;1.58;;;0.65;;
54307;SDS011;40208;39.778;2.710;2022-08-21T12:59:04;3.80;;;1.17;;
54307;SDS011;40208;39.778;2.710;2022-08-21T13:01:50;0.85;;;0.70;;
54307;SDS011;40208;39.778;2.710;2022-08-21T13:04:39;1.57;;;0.70;;
54307;SDS011;40208;39.778;2.710;2022-08-21T13:07:27;3.78;;;0.80;;
54307;SDS011;40208;39.778;2.710;2022-08-21T13:10:22;4.23;;;0.70;;
54307;SDS011;40208;39.778;2.710;2022-08-21T13:13:12;0.63;;;0.43;;
54307;SDS011;40208;39.778;2.710;2022-08-21T13:16:03;1.80;;;0.70;;
54307;SDS011;40208;39.778;2.710;2022-08-21T13:19:01;1.25;;;0.70;;
54307;SDS011;40208;39.778;2.710;2022-08-21T13:21:50;1.55;;;0.80;;
54307;SDS011;40208;39.778;2.710;2022-08-21T13:24:36;2.97;;;0.90;;
54307;SDS011;40208;39.778;2.710;2022-08-21T13:27:28;1.20;;;0.60;;
54307;SDS011;40208;39.778;2.710;2022-08-21T13:30:19;0.80;;;0.52;;
54307;SDS011;40208;39.778;2.710;2022-08-21T13:33:06;3.78;;;0.70;;
54307;SDS011;40208;39.778;2.710;2022-08-21T13:38:37;0.75;;;0.60;;
54307;SDS011;40208;39.778;2.710;2022-08-21T13:41:25;2.92;;;1.13;;
54307;SDS011;40208;39.778;2.710;2022-08-21T13:44:21;1.50;;;0.52;;
54307;SDS011;40208;39.778;2.710;2022-08-21T13:47:20;3.20;;;0.70;;
54307;SDS011;40208;39.778;2.710;2022-08-21T13:50:05;2.28;;;0.70;;
54307;SDS011;40208;39.778;2.710;2022-08-21T13:52:58;0.95;;;0.75;;
54307;SDS011;40208;39.778;2.710;2022-08-21T13:55:48;2.25;;;1.00;;
54307;SDS011;40208;39.778;2.710;2022-08-21T13:58:40;2.15;;;0.73;;
54307;SDS011;40208;39.778;2.710;2022-08-21T14:01:32;6.03;;;1.13;;
54307;SDS011;40208;39.778;2.710;2022-08-21T14:04:22;1.65;;;0.63;;
54307;SDS011;40208;39.778;2.710;2022-08-21T14:07:19;0.93;;;0.60;;
54307;SDS011;40208;39.778;2.710;2022-08-21T14:10:16;2.10;;;0.68;;
54307;SDS011;40208;39.778;2.710;2022-08-21T14:13:04;3.03;;;0.63;;
54307;SDS011;40208;39.778;2.710;2022-08-21T14:15:58;2.70;;;0.88;;
54307;SDS011;40208;39.778;2.710;2022-08-21T14:19:08;1.35;;;0.52;;
54307;SDS011;40208;39.778;2.710;2022-08-21T14:21:49;1.98;;;0.80;;
54307;SDS011;40208;39.778;2.710;2022-08-21T14:24:38;1.73;;;0.70;;
54307;SDS011;40208;39.778;2.710;2022-08-21T14:27:24;3.65;;;1.00;;
54307;SDS011;40208;39.778;2.710;2022-08-21T14:30:11;0.93;;;0.60;;
54307;SDS011;40208;39.778;2.710;2022-08-21T14:33:01;5.80;;;1.05;;
54307;SDS011;40208;39.778;2.710;2022-08-21T14:35:48;3.10;;;0.85;;
54307;SDS011;40208;39.778;2.710;2022-08-21T14:38:34;2.75;;;0.70;;
54307;SDS011;40208;39.778;2.710;2022-08-21T14:41:21;3.70;;;1.13;;
54307;SDS011;40208;39.778;2.710;2022-08-21T14:44:08;5.35;;;1.17;;
54307;SDS011;40208;39.778;2.710;2022-08-21T14:46:54;4.88;;;0.88;;
54307;SDS011;40208;39.778;2.710;2022-08-21T14:49:39;2.35;;;0.80;;
54307;SDS011;40208;39.778;2.710;2022-08-21T14:52:24;1.58;;;0.70;;
54307;SDS011;40208;39.778;2.710;2022-08-21T14:55:09;3.08;;;0.80;;
54307;SDS011;40208;39.778;2.710;2022-08-21T14:57:57;5.85;;;1.00;;
54307;SDS011;40208;39.778;2.710;2022-08-21T15:00:42;2.85;;;0.80;;
54307;SDS011;40208;39.778;2.710;2022-08-21T15:03:27;6.30;;;1.05;;
54307;SDS011;40208;39.778;2.710;2022-08-21T15:06:12;3.60;;;1.00;;
54307;SDS011;40208;39.778;2.710;2022-08-21T15:08:57;3.90;;;1.08;;
54307;SDS011;40208;39.778;2.710;2022-08-21T15:11:42;3.40;;;0.85;;
54307;SDS011;40208;39.778;2.710;2022-08-21T15:14:28;2.47;;;1.05;;
54307;SDS011;40208;39.778;2.710;2022-08-21T15:17:15;7.93;;;1.95;;
54307;SDS011;40208;39.778;2.710;2022-08-21T15:20:00;7.78;;;0.85;;
54307;SDS011;40208;39.778;2.710;2022-08-21T15:22:45;3.08;;;0.80;;
54307;SDS011;40208;39.778;2.710;2022-08-21T15:25:30;5.43;;;1.00;;
54307;SDS011;40208;39.778;2.710;2022-08-21T15:28:15;2.50;;;0.90;;
54307;SDS011;40208;39.778;2.710;2022-08-21T15:31:01;1.45;;;0.70;;
54307;SDS011;40208;39.778;2.710;2022-08-21T15:33:46;4.55;;;1.02;;
54307;SDS011;40208;39.778;2.710;2022-08-21T15:36:31;1.88;;;0.63;;
54307;SDS011;40208;39.778;2.710;2022-08-21T15:39:15;2.90;;;1.10;;
54307;SDS011;40208;39.778;2.710;2022-08-21T15:42:01;3.28;;;1.15;;
54307;SDS011;40208;39.778;2.710;2022-08-21T15:44:46;4.60;;;1.30;;
54307;SDS011;40208;39.778;2.710;2022-08-21T15:47:34;3.45;;;1.55;;
54307;SDS011;40208;39.778;2.710;2022-08-21T15:50:20;3.00;;;1.65;;
54307;SDS011;40208;39.778;2.710;2022-08-21T15:53:05;5.32;;;1.83;;
54307;SDS011;40208;39.778;2.710;2022-08-21T15:55:51;8.15;;;1.50;;
54307;SDS011;40208;39.778;2.710;2022-08-21T15:58:37;4.35;;;1.65;;
54307;SDS011;40208;39.778;2.710;2022-08-21T16:01:23;6.13;;;1.38;;
54307;SDS011;40208;39.778;2.710;2022-08-21T16:04:07;5.40;;;1.70;;
54307;SDS011;40208;39.778;2.710;2022-08-21T16:06:53;3.30;;;1.25;;
54307;SDS011;40208;39.778;2.710;2022-08-21T16:09:39;6.07;;;1.30;;
54307;SDS011;40208;39.778;2.710;2022-08-21T16:12:27;6.40;;;1.55;;
54307;SDS011;40208;39.778;2.710;2022-08-21T16:15:17;3.25;;;1.13;;
54307;SDS011;40208;39.778;2.710;2022-08-21T16:18:02;4.45;;;1.50;;
54307;SDS011;40208;39.778;2.710;2022-08-21T16:20:48;6.82;;;1.77;;
54307;SDS011;40208;39.778;2.710;2022-08-21T16:23:34;5.63;;;1.30;;
54307;SDS011;40208;39.778;2.710;2022-08-21T16:26:20;5.55;;;1.48;;
54307;SDS011;40208;39.778;2.710;2022-08-21T16:29:05;4.57;;;1.33;;
54307;SDS011;40208;39.778;2.710;2022-08-21T16:31:51;6.70;;;1.10;;
54307;SDS011;40208;39.778;2.710;2022-08-21T16:34:36;4.43;;;1.67;;
54307;SDS011;40208;39.778;2.710;2022-08-21T16:37:25;8.88;;;1.02;;
54307;SDS011;40208;39.778;2.710;2022-08-21T16:40:11;6.43;;;1.30;;
54307;SDS011;40208;39.778;2.710;2022-08-21T16:42:56;2.58;;;1.00;;
54307;SDS011;40208;39.778;2.710;2022-08-21T16:45:41;3.35;;;1.27;;
54307;SDS011;40208;39.778;2.710;2022-08-21T16:48:27;4.15;;;0.85;;
54307;SDS011;40208;39.778;2.710;2022-08-21T16:51:13;2.72;;;0.93;;
54307;SDS011;40208;39.778;2.710;2022-08-21T16:53:59;3.17;;;1.02;;
54307;SDS011;40208;39.778;2.710;2022-08-21T16:56:44;3.97;;;0.93;;
54307;SDS011;40208;39.778;2.710;2022-08-21T16:59:29;4.88;;;1.25;;
54307;SDS011;40208;39.778;2.710;2022-08-21T17:02:24;6.18;;;1.30;;
54307;SDS011;40208;39.778;2.710;2022-08-21T17:05:18;3.08;;;0.90;;
54307;SDS011;40208;39.778;2.710;2022-08-21T17:08:03;2.67;;;0.95;;
54307;SDS011;40208;39.778;2.710;2022-08-21T17:10:48;3.50;;;1.08;;
54307;SDS011;40208;39.778;2.710;2022-08-21T17:13:34;6.22;;;1.02;;
54307;SDS011;40208;39.778;2.710;2022-08-21T17:16:18;5.07;;;1.00;;
54307;SDS011;40208;39.778;2.710;2022-08-21T17:19:04;3.72;;;0.95;;
54307;SDS011;40208;39.778;2.710;2022-08-21T17:21:49;5.78;;;1.55;;
54307;SDS011;40208;39.778;2.710;2022-08-21T17:24:34;3.20;;;1.10;;
54307;SDS011;40208;39.778;2.710;2022-08-21T17:27:21;7.10;;;1.17;;
54307;SDS011;40208;39.778;2.710;2022-08-21T17:30:08;4.75;;;1.45;;
54307;SDS011;40208;39.778;2.710;2022-08-21T17:32:54;3.30;;;0.98;;
54307;SDS011;40208;39.778;2.710;2022-08-21T17:35:42;2.53;;;1.10;;
54307;SDS011;40208;39.778;2.710;2022-08-21T17:38:27;3.20;;;1.00;;
54307;SDS011;40208;39.778;2.710;2022-08-21T17:41:12;2.97;;;1.00;;
54307;SDS011;40208;39.778;2.710;2022-08-21T17:43:58;2.45;;;1.20;;
54307;SDS011;40208;39.778;2.710;2022-08-21T17:46:50;5.00;;;1.17;;
54307;SDS011;40208;39.778;2.710;2022-08-21T17:49:35;6.18;;;1.10;;
54307;SDS011;40208;39.778;2.710;2022-08-21T17:52:20;4.95;;;1.08;;
54307;SDS011;40208;39.778;2.710;2022-08-21T17:55:05;3.10;;;1.10;;
54307;SDS011;40208;39.778;2.710;2022-08-21T17:57:50;3.67;;;0.80;;
54307;SDS011;40208;39.778;2.710;2022-08-21T18:00:36;7.18;;;1.17;;
54307;SDS011;40208;39.778;2.710;2022-08-21T18:03:21;3.83;;;0.80;;
54307;SDS011;40208;39.778;2.710;2022-08-21T18:06:07;2.42;;;1.00;;
54307;SDS011;40208;39.778;2.710;2022-08-21T18:08:51;1.73;;;0.93;;
54307;SDS011;40208;39.778;2.710;2022-08-21T18:11:37;3.17;;;0.73;;
54307;SDS011;40208;39.778;2.710;2022-08-21T18:14:25;4.35;;;1.33;;
54307;SDS011;40208;39.778;2.710;2022-08-21T18:17:13;3.90;;;1.00;;
54307;SDS011;40208;39.778;2.710;2022-08-21T18:20:03;4.90;;;1.20;;
54307;SDS011;40208;39.778;2.710;2022-08-21T18:22:50;3.67;;;1.00;;
54307;SDS011;40208;39.778;2.710;2022-08-21T18:25:35;2.55;;;0.93;;
54307;SDS011;40208;39.778;2.710;2022-08-21T18:28:20;6.00;;;1.73;;
54307;SDS011;40208;39.778;2.710;2022-08-21T18:31:07;6.45;;;0.95;;
54307;SDS011;40208;39.778;2.710;2022-08-21T18:33:54;7.43;;;1.13;;